Etusivu
METAR-TAF:

METAR-TAF

Lentoasemat :

Las Cruces International Airport

Las Cruces, New Mexico, Yhdysvallat

Leveyspiiri: 32-17-22N, Pituuspiiri: 106-55-19W, korkeus merenpinnasta: 1358 m

Tämänhetkinen sää

Tämä raportti tehtiin 24 minuuttia sitten, kello 17.55 UTC
tyyntä
Lämpötila 10°C
Kosteus 37%
Ilmanpaine 1021 hPa
Näkyvyys: 16.1 km
selkeää

METAR: KLRU 131755Z AUTO 00000KT 10SM CLR 10/M04 A3015 RMK AO2 T00971045 10098 21030

Aika: 11:19 (18:19 UTC)

Sääennuste

Tämä raportti tehtiin 59 minuuttia sitten, kello 17.20 UTC
Ennuste voimassa 13. päivästä klo 18 UTC - 14. päivään klo 18 UTC
Tuuli 4 kn lännestä
Näkyvyys: 10 km
selkeää
From 14. päivästä klo 0900 UTC
Tuuli 6 kn idästä/kaakosta
Näkyvyys: 10 km
selkeää

TAF: KLRU 131720Z 1318/1418 26004KT P6SM SKC FM140900 11006KT P6SM SKC

Säähavainnot ja -ennusteet yli 4000 lentoasemalta (METAR- ja TAF-raportit).

Käytössä olevat sääasemat on merkitty karttaan keltaisilla ja punaisilla pisteillä.

Aseta hiiri pisteen päälle nähdäksesi sääaseman nimen.

Klikkaa sitten nähdäksesi säähavainnot ja -ennusteet.

Kartan vaihtaminen: klikkaa mustalla rastilla varustettuja vihreitä pisteitä, niin voit zoomata sisään; viivalla varustettua vihreää pistettä, niin voit zoomata ulos tai vihreitä nuolia, niin pääset viereisille kartoille.


METAR-TAF: